Timeline UpdatesTrip UpdatesNews PostsPvt PostsTravel TipsAdmin PostsConv PostsFollowed PostsChat RequestsBlog PostsPNR Posts

Disclaimer
Search
 
 
Thu Aug 28, 2014 12:37:36 ISTHomeTrainsΣChainsAtlasPNRForumGalleryNewsFAQTripsMembersLoginFeedback
No Recent News for this Train
Other Trains in the News **new
Latest...
Monsoon TT effective from 1/7/14-30/9/14.
Tue Jul 01, 2014 (08:30PM)
⇐ Return Journey: Train# 16338

16337/Okha-Ernakulam Express

Jul 01 2014 (8:30PM)
Change Departure Station:
Change Arrival Station:
Post a Train Travel TipPost a Train Travel Tip **new
Post a Comment/Question/Picture/VideoPost a Comment/Question/Picture/Video
Pantry/Catering
✓ Pantry Car Avbl
✓ Catering Avbl
RSA - Rake Sharing
12683/84 Ernakulam Bangalore Express
Rake/Coach Composition
SLR-UR-A1-B2-B1-S12-S11-PC-S10-S9-S8-S7-S6-S5-S4-S3-S2-S1-UR-UR-SLR.; Author: Mahesh Kavthankar.; Entry# 276086.
Loco
ERS WDM3A
News    PNR    Forum    Time-Table    Availability    Fare Chart    Map    Arr/Dep History    Trips    Gallery    ΣChains    X/O    Timeline    
Travel Time: 41h 8m    36 halts    Distance: 1994 km    Avg Speed: 48 km/hr
Type: Mail/Express
Zone: SR/Southern
Departs @ 02:00 (Avg 7m late)
Platform# 1
 M    S
Okha/OKHA 
Arrives @ 19:08 +1 night (Avg 54m late)
Platform# 2
S T    
Thalassery/TLY 

36 halts. 257 intermediate Stations between Okha and Thalassery

Show ALL intermediate Stations  Show Old Time-Table

#CodeStation NameX/OArrivesAvgDepartsAvgHaltPFDay#KmSpeedElevZoneAddress
1OKHA»Okha (3)»  -02:00+7110.0615mWROkha, Gujarat
2DWKDwarka (2)  02:28+902:30+122m--128.65914mWRDwarka, Gujarat
3KMBLKhambhalia  03:56+803:58+112m--1112.74849mWRKhambhalia, Gujarat
4JAMJamnagar (2)  05:06+705:08+162m--1167.04014mWRJamnagar, Gujarat
5HAPAHapa (3)05:21+1505:23+232m--1175.76516mWRJamnagar, Gujarat
6RJTRajkot Junction (5)X  06:33+1906:35+242m11251.661128mWRRajkot, Gujarat
7SUNRSurendranagar Junction (4)X  08:30+2108:32+232m--1367.65072mWRSurendra Nagar, Gujarat
8VGViramgam Junction (5)  09:50+1109:52+122m21433.15429mWRViramgam, Gujarat
9ADIAhmedabad Junction (12)X  11:05+1211:25+520m51498.56251mWRAhmedabad, Gujarat
10ANNDAnand Junction (6)X  12:27+3012:29+292m11562.55244mWRAnand, Gujarat
11BRCVadodara Junction (7)X  13:10+3113:12+382m11598.37036mWRVadodara 390005, Gujarat
12AKVAnkleshwar Junction (4)X  14:20+3514:22+352m21678.14219mWRAnkleshwar, Gujarat
13STSurat (4)X  15:33+3015:35+362m21728.15719mWRSurat 395001, Gujarat
14NVSNavsari (3)  16:06+4316:08+432m21757.75914mWRNavsari, Gujarat
15BLValsad (3)X  16:48+3716:53+375m31796.84715mWRValsad, Gujarat
16BORBoisar (3)X18:57+518:59+72m--1893.33417mWRBoisar Tel.no-02525-266626, Maharashtra
17BSRVasai Road (7)  20:30+020:40+210m71944.1637mWRVasai 401202, Maharashtra
18BIRDBhiwandi Road (4)X  21:06+1021:08+102m11971.44526mCRBhiwandi, Maharashtra
19PNVLPanvel Junction (7)  22:00+1322:05+185m711010.05010mCRPanvel, Maharashtra
20MNIMangaon (2)X  00:12+3600:14+1:122m121116.25212mKRMangaon - 402104, Maharashtra
21RNRatnagiri (3)  03:35+1:0303:40+1:065m121289.155129mKRRatnagiri 415612, Maharashtra
22KKWKankavali (2)  05:42+1:2205:44+1:222m121400.55645mKRKankavli - 416602, Maharashtra
23THVMThivim (2)  07:08+1:1607:10+1:102m121479.02121mKRThivim - 403502, Goa
24MAOMadgaon Junction (3)  09:20+3809:30+4710m121523.95711mKRMadgaon 403601, Goa
25KAWRKarwar (2)  10:35+5710:37+1:032m121585.35214mKRKarwar, Karnataka
26HNAHonnavar (2)X  11:56+1:1611:58+1:192m--21654.2614mKRUttara Kannada Dist, Karnataka
27BTJLBhatkal (2)  12:38+4612:40+472m121695.15716mKRBhatkal - 581320, Karnataka
28BYNRByndoor Mookambika Road (1)  12:56+2812:58+282m121710.37210mKRUdupi Dist. 576214, Karnataka
29KUDAKundapura (2)  13:26+1:0613:28+1:082m121743.85613mKRKundapura - 576211, Karnataka
30UDUdupi (2)X  14:02+5514:04+562m121775.85218mKRUdupi, Karnataka
31SLSurathkal (1)  14:52+4014:54+372m121817.71922mKRSurathkal, Karnataka
32MAJNMangalore Junction (3)  16:00+5516:10+5810m121838.25124mSRMangalore 575001, Karnataka
33KGQKasaragod (3)  17:08+5617:10+572m--21887.37718mSRTel: 04994 220800, Kerala
34KZEKanhangad (3)X  17:28+1:0217:30+1:022m--21910.47615mSRKanhangad, Kerala
35PAYPayyanur (3)  17:53+4517:55+452m221939.7770mSRKannur District, Kerala
36KPQKannapuram (2)XO  18:10+5318:12+512m221958.9269mSRKannur District, Kerala
37CANKannur Main (4)X  18:45+4518:50+475m321973.36914mSRKannur Tel: 0497 2705555, Kerala
38TLY•Thalassery (2)•  19:08+5419:10+542m221994.0669mSRKannur, Kerala
39BDJVadakara (2)X  19:30+3919:32+382m122016.18211mSRCalicut / Station Ph No : 0496-2524254, Kerala
40QLDKoyilandy (3)  19:48+4319:50+422m222038.14211mSRQuilandi, Kerala
41CLTKozhikode Main (4)  20:25+4220:30+445m122062.44611mSRCalicut Tel: 0495 2701234, Kerala
42FKFerok (2)  20:43+3720:45+372m122072.47019mSRFeroke, Kerala
43PGIParappangadi (2)  20:58+4421:00+472m122087.65419mSRParappanangadi, Kerala
44TIRTirur (3)  21:18+3121:20+322m322103.6509mSRTel: 0494 2422240, Kerala
45KTUKuttippuram (2)  21:38+3821:40+382m222118.78517mSRKuttippuram, Kerala
46PTBPattambi (2)XO  21:53+3521:55+352m222137.21321mSRPattambi, Kerala
47SRRShoranur Junction (7)O  22:50+2323:00+2610m422148.76626mSRShoranur ph.no 0466-2222913, Kerala
48TCRThrissur (4)  23:30+3423:33+343m122181.7706mSRThrissur Tel: 0487 2423150, Kerala
49AWYAluva (3)X  00:20+2600:22+252m132236.32212mSRPh: 0484-2624141, Kerala
50ERSErnakulam Junction (South) (6)  01:15+24-532255.7-3mSRErnakulam 682016, Kerala
Scroll to Top
Scroll to Bottom